sensor_id;sensor_type;location;lat;lon;timestamp;pressure;altitude;pressure_sealevel;temperature;humidity
40788;BME280;26497;52.494;7.546;2023-02-28T00:00:53;102504.97;;;7.83;45.55
40788;BME280;26497;52.494;7.546;2023-02-28T00:03:20;102498.78;;;7.81;45.48
40788;BME280;26497;52.494;7.546;2023-02-28T00:05:47;102502.38;;;7.62;46.54
40788;BME280;26497;52.494;7.546;2023-02-28T00:08:14;102503.78;;;7.53;47.48
40788;BME280;26497;52.494;7.546;2023-02-28T00:10:41;102510.44;;;7.66;46.94
40788;BME280;26497;52.494;7.546;2023-02-28T00:13:08;102505.31;;;7.70;46.76
40788;BME280;26497;52.494;7.546;2023-02-28T00:15:36;102503.97;;;7.79;46.77
40788;BME280;26497;52.494;7.546;2023-02-28T00:18:05;102505.69;;;7.79;46.35
40788;BME280;26497;52.494;7.546;2023-02-28T00:20:32;102496.34;;;7.86;46.12
40788;BME280;26497;52.494;7.546;2023-02-28T00:22:59;102496.94;;;7.78;46.16
40788;BME280;26497;52.494;7.546;2023-02-28T00:25:26;102489.63;;;7.71;46.66
40788;BME280;26497;52.494;7.546;2023-02-28T00:27:53;102502.19;;;7.78;46.35
40788;BME280;26497;52.494;7.546;2023-02-28T00:30:23;102509.22;;;7.79;46.26
40788;BME280;26497;52.494;7.546;2023-02-28T00:32:51;102503.38;;;7.87;46.38
40788;BME280;26497;52.494;7.546;2023-02-28T00:35:19;102500.69;;;7.85;45.98
40788;BME280;26497;52.494;7.546;2023-02-28T00:37:48;102506.78;;;7.84;45.94
40788;BME280;26497;52.494;7.546;2023-02-28T00:40:16;102505.88;;;7.62;47.06
40788;BME280;26497;52.494;7.546;2023-02-28T00:42:43;102500.47;;;7.58;47.15
40788;BME280;26497;52.494;7.546;2023-02-28T00:45:10;102503.13;;;7.59;47.12
40788;BME280;26497;52.494;7.546;2023-02-28T00:47:37;102503.84;;;7.76;46.87
40788;BME280;26497;52.494;7.546;2023-02-28T00:50:06;102500.25;;;7.74;46.50
40788;BME280;26497;52.494;7.546;2023-02-28T00:52:35;102498.34;;;7.49;47.96
40788;BME280;26497;52.494;7.546;2023-02-28T00:55:03;102498.22;;;7.46;48.55
40788;BME280;26497;52.494;7.546;2023-02-28T00:57:30;102496.28;;;7.42;48.69
40788;BME280;26497;52.494;7.546;2023-02-28T00:59:57;102491.59;;;7.34;49.05
40788;BME280;26497;52.494;7.546;2023-02-28T01:02:24;102488.38;;;7.40;48.72
40788;BME280;26497;52.494;7.546;2023-02-28T01:04:51;102490.41;;;7.26;49.06
40788;BME280;26497;52.494;7.546;2023-02-28T01:07:18;102497.69;;;7.33;48.78
40788;BME280;26497;52.494;7.546;2023-02-28T01:09:47;102502.50;;;7.44;48.07
40788;BME280;26497;52.494;7.546;2023-02-28T01:12:14;102503.19;;;7.40;47.79
40788;BME280;26497;52.494;7.546;2023-02-28T01:14:42;102494.00;;;7.28;48.31
40788;BME280;26497;52.494;7.546;2023-02-28T01:17:09;102494.31;;;7.15;48.63
40788;BME280;26497;52.494;7.546;2023-02-28T01:19:36;102496.13;;;6.96;50.10
40788;BME280;26497;52.494;7.546;2023-02-28T01:22:04;102496.81;;;6.92;50.69
40788;BME280;26497;52.494;7.546;2023-02-28T01:24:32;102495.72;;;6.87;50.63
40788;BME280;26497;52.494;7.546;2023-02-28T01:27:01;102492.00;;;6.82;51.33
40788;BME280;26497;52.494;7.546;2023-02-28T01:29:28;102485.22;;;6.87;51.16
40788;BME280;26497;52.494;7.546;2023-02-28T01:31:55;102492.44;;;7.12;50.19
40788;BME280;26497;52.494;7.546;2023-02-28T01:34:22;102492.06;;;7.24;49.30
40788;BME280;26497;52.494;7.546;2023-02-28T01:36:49;102492.50;;;7.14;49.42
40788;BME280;26497;52.494;7.546;2023-02-28T01:39:17;102497.50;;;7.07;50.25
40788;BME280;26497;52.494;7.546;2023-02-28T01:41:44;102506.25;;;7.08;50.26
40788;BME280;26497;52.494;7.546;2023-02-28T01:44:57;102492.28;;;7.09;50.68
40788;BME280;26497;52.494;7.546;2023-02-28T01:47:29;102500.16;;;7.09;50.84
40788;BME280;26497;52.494;7.546;2023-02-28T01:49:58;102501.34;;;7.16;50.69
40788;BME280;26497;52.494;7.546;2023-02-28T01:52:26;102502.22;;;7.16;50.73
40788;BME280;26497;52.494;7.546;2023-02-28T01:54:55;102493.22;;;7.10;50.94
40788;BME280;26497;52.494;7.546;2023-02-28T01:57:28;102492.94;;;7.03;51.53
40788;BME280;26497;52.494;7.546;2023-02-28T02:00:02;102483.59;;;7.10;51.75
40788;BME280;26497;52.494;7.546;2023-02-28T02:02:33;102493.75;;;7.22;51.59
40788;BME280;26497;52.494;7.546;2023-02-28T02:05:06;102490.72;;;7.34;50.75
40788;BME280;26497;52.494;7.546;2023-02-28T02:07:36;102491.03;;;7.20;51.21
40788;BME280;26497;52.494;7.546;2023-02-28T02:10:11;102499.19;;;7.07;52.09
40788;BME280;26497;52.494;7.546;2023-02-28T02:13:36;102490.38;;;7.05;52.75
40788;BME280;26497;52.494;7.546;2023-02-28T02:16:18;102489.09;;;7.16;51.96
40788;BME280;26497;52.494;7.546;2023-02-28T02:18:53;102484.81;;;7.18;51.78
40788;BME280;26497;52.494;7.546;2023-02-28T02:22:03;102493.63;;;6.99;52.48
40788;BME280;26497;52.494;7.546;2023-02-28T02:25:10;102487.56;;;7.00;52.62
40788;BME280;26497;52.494;7.546;2023-02-28T02:28:18;102483.25;;;7.22;51.96
40788;BME280;26497;52.494;7.546;2023-02-28T02:34:27;102482.97;;;7.16;50.96
40788;BME280;26497;52.494;7.546;2023-02-28T02:37:08;102489.75;;;7.32;50.25
40788;BME280;26497;52.494;7.546;2023-02-28T02:39:43;102497.47;;;7.27;50.06
40788;BME280;26497;52.494;7.546;2023-02-28T02:42:16;102496.97;;;7.37;49.96
40788;BME280;26497;52.494;7.546;2023-02-28T02:44:53;102493.28;;;7.32;49.95
40788;BME280;26497;52.494;7.546;2023-02-28T02:47:25;102497.06;;;7.18;50.61
40788;BME280;26497;52.494;7.546;2023-02-28T02:49:57;102486.47;;;7.16;50.89
40788;BME280;26497;52.494;7.546;2023-02-28T02:52:31;102486.56;;;7.18;50.87
40788;BME280;26497;52.494;7.546;2023-02-28T02:55:01;102481.09;;;7.13;51.17
40788;BME280;26497;52.494;7.546;2023-02-28T02:57:33;102482.59;;;7.06;51.36
40788;BME280;26497;52.494;7.546;2023-02-28T03:00:05;102489.34;;;7.01;51.70
40788;BME280;26497;52.494;7.546;2023-02-28T03:02:34;102492.84;;;7.02;51.85
40788;BME280;26497;52.494;7.546;2023-02-28T03:05:12;102490.59;;;7.10;51.61
40788;BME280;26497;52.494;7.546;2023-02-28T03:07:41;102485.03;;;7.23;51.20
40788;BME280;26497;52.494;7.546;2023-02-28T03:10:41;102492.00;;;7.22;50.88
40788;BME280;26497;52.494;7.546;2023-02-28T03:13:41;102487.34;;;6.96;52.48
40788;BME280;26497;52.494;7.546;2023-02-28T03:16:32;102479.47;;;6.96;52.30
40788;BME280;26497;52.494;7.546;2023-02-28T03:19:25;102478.09;;;7.04;51.88
40788;BME280;26497;52.494;7.546;2023-02-28T03:22:14;102478.59;;;6.95;51.55
40788;BME280;26497;52.494;7.546;2023-02-28T03:24:47;102475.84;;;6.92;51.43
40788;BME280;26497;52.494;7.546;2023-02-28T03:27:23;102478.06;;;6.83;51.99
40788;BME280;26497;52.494;7.546;2023-02-28T03:29:58;102473.63;;;6.82;51.67
40788;BME280;26497;52.494;7.546;2023-02-28T03:32:33;102473.56;;;6.80;51.71
40788;BME280;26497;52.494;7.546;2023-02-28T03:35:07;102475.56;;;6.86;51.52
40788;BME280;26497;52.494;7.546;2023-02-28T03:37:41;102475.97;;;6.95;51.22
40788;BME280;26497;52.494;7.546;2023-02-28T03:40:13;102475.69;;;6.89;51.15
40788;BME280;26497;52.494;7.546;2023-02-28T03:42:46;102470.03;;;6.79;51.54
40788;BME280;26497;52.494;7.546;2023-02-28T03:45:18;102473.41;;;6.77;51.85
40788;BME280;26497;52.494;7.546;2023-02-28T03:47:53;102474.78;;;6.88;51.62
40788;BME280;26497;52.494;7.546;2023-02-28T03:50:24;102476.81;;;6.94;51.57
40788;BME280;26497;52.494;7.546;2023-02-28T03:53:00;102476.09;;;6.98;51.52
40788;BME280;26497;52.494;7.546;2023-02-28T03:55:34;102472.66;;;6.99;51.46
40788;BME280;26497;52.494;7.546;2023-02-28T03:58:11;102475.41;;;7.02;51.45
40788;BME280;26497;52.494;7.546;2023-02-28T04:00:45;102473.22;;;6.92;51.87
40788;BME280;26497;52.494;7.546;2023-02-28T04:03:14;102472.66;;;6.99;51.58
40788;BME280;26497;52.494;7.546;2023-02-28T04:05:50;102475.50;;;7.25;50.94
40788;BME280;26497;52.494;7.546;2023-02-28T04:08:20;102472.75;;;7.22;50.71
40788;BME280;26497;52.494;7.546;2023-02-28T04:10:53;102474.00;;;7.11;51.12
40788;BME280;26497;52.494;7.546;2023-02-28T04:13:22;102476.69;;;7.12;51.07
40788;BME280;26497;52.494;7.546;2023-02-28T04:15:49;102482.72;;;7.31;50.75
40788;BME280;26497;52.494;7.546;2023-02-28T04:18:17;102476.19;;;7.21;50.65
40788;BME280;26497;52.494;7.546;2023-02-28T04:20:44;102481.94;;;7.12;50.75
40788;BME280;26497;52.494;7.546;2023-02-28T04:23:14;102487.19;;;7.12;50.83
40788;BME280;26497;52.494;7.546;2023-02-28T04:25:42;102485.38;;;6.90;51.45
40788;BME280;26497;52.494;7.546;2023-02-28T04:28:09;102480.94;;;6.89;51.80
40788;BME280;26497;52.494;7.546;2023-02-28T04:30:37;102482.19;;;6.97;51.70
40788;BME280;26497;52.494;7.546;2023-02-28T04:33:05;102485.13;;;7.05;51.57
40788;BME280;26497;52.494;7.546;2023-02-28T04:35:33;102482.59;;;7.06;51.49
40788;BME280;26497;52.494;7.546;2023-02-28T04:38:00;102474.06;;;7.12;51.28
40788;BME280;26497;52.494;7.546;2023-02-28T04:40:27;102484.78;;;7.17;51.39
40788;BME280;26497;52.494;7.546;2023-02-28T04:42:56;102484.06;;;7.21;51.02
40788;BME280;26497;52.494;7.546;2023-02-28T04:45:23;102482.34;;;7.21;50.78
40788;BME280;26497;52.494;7.546;2023-02-28T04:47:50;102486.97;;;7.27;50.78
40788;BME280;26497;52.494;7.546;2023-02-28T04:50:17;102488.22;;;7.16;50.74
40788;BME280;26497;52.494;7.546;2023-02-28T04:52:44;102490.72;;;7.13;51.09
40788;BME280;26497;52.494;7.546;2023-02-28T04:55:11;102494.59;;;7.01;51.61
40788;BME280;26497;52.494;7.546;2023-02-28T04:57:38;102494.38;;;6.97;51.73
40788;BME280;26497;52.494;7.546;2023-02-28T05:00:11;102497.78;;;6.94;52.21
40788;BME280;26497;52.494;7.546;2023-02-28T05:02:42;102495.03;;;6.91;52.38
40788;BME280;26497;52.494;7.546;2023-02-28T05:05:09;102498.75;;;6.76;52.83
40788;BME280;26497;52.494;7.546;2023-02-28T05:07:37;102502.47;;;6.82;53.09
40788;BME280;26497;52.494;7.546;2023-02-28T05:10:05;102505.03;;;6.80;53.34
40788;BME280;26497;52.494;7.546;2023-02-28T05:12:33;102504.28;;;6.83;53.32
40788;BME280;26497;52.494;7.546;2023-02-28T05:15:00;102493.78;;;6.83;53.50
40788;BME280;26497;52.494;7.546;2023-02-28T05:17:29;102496.41;;;6.83;53.46
40788;BME280;26497;52.494;7.546;2023-02-28T05:19:56;102488.69;;;6.66;54.37
40788;BME280;26497;52.494;7.546;2023-02-28T05:22:23;102493.44;;;6.55;54.69
40788;BME280;26497;52.494;7.546;2023-02-28T05:24:53;102492.63;;;6.56;54.96
40788;BME280;26497;52.494;7.546;2023-02-28T05:27:21;102494.34;;;6.56;55.07
40788;BME280;26497;52.494;7.546;2023-02-28T05:29:48;102490.75;;;6.54;55.02
40788;BME280;26497;52.494;7.546;2023-02-28T05:32:15;102489.91;;;6.55;55.12
40788;BME280;26497;52.494;7.546;2023-02-28T05:34:44;102493.38;;;6.54;55.13
40788;BME280;26497;52.494;7.546;2023-02-28T05:37:12;102491.84;;;6.59;54.90
40788;BME280;26497;52.494;7.546;2023-02-28T05:39:43;102499.72;;;6.78;53.85
40788;BME280;26497;52.494;7.546;2023-02-28T05:42:11;102507.44;;;6.75;53.50
40788;BME280;26497;52.494;7.546;2023-02-28T05:44:38;102509.66;;;6.66;53.85
40788;BME280;26497;52.494;7.546;2023-02-28T05:47:05;102520.06;;;6.64;53.78
40788;BME280;26497;52.494;7.546;2023-02-28T05:49:32;102520.56;;;6.56;53.84
40788;BME280;26497;52.494;7.546;2023-02-28T05:52:00;102522.63;;;6.63;54.04
40788;BME280;26497;52.494;7.546;2023-02-28T05:54:27;102527.53;;;6.75;53.60
40788;BME280;26497;52.494;7.546;2023-02-28T05:56:54;102521.25;;;6.71;53.47
40788;BME280;26497;52.494;7.546;2023-02-28T05:59:21;102532.56;;;6.70;53.49
40788;BME280;26497;52.494;7.546;2023-02-28T06:01:48;102535.06;;;6.67;53.76
40788;BME280;26497;52.494;7.546;2023-02-28T06:04:18;102529.53;;;6.61;53.55
40788;BME280;26497;52.494;7.546;2023-02-28T06:06:47;102533.16;;;6.64;53.42
40788;BME280;26497;52.494;7.546;2023-02-28T06:09:17;102541.94;;;6.65;53.47
40788;BME280;26497;52.494;7.546;2023-02-28T06:11:44;102543.47;;;6.60;53.35
40788;BME280;26497;52.494;7.546;2023-02-28T06:14:15;102540.56;;;6.54;53.50
40788;BME280;26497;52.494;7.546;2023-02-28T06:16:43;102538.03;;;6.55;53.51
40788;BME280;26497;52.494;7.546;2023-02-28T06:19:11;102541.81;;;6.62;53.08
40788;BME280;26497;52.494;7.546;2023-02-28T06:21:38;102543.31;;;6.57;53.08
40788;BME280;26497;52.494;7.546;2023-02-28T06:24:06;102554.50;;;6.53;53.16
40788;BME280;26497;52.494;7.546;2023-02-28T06:26:35;102549.34;;;6.36;53.45
40788;BME280;26497;52.494;7.546;2023-02-28T06:29:03;102547.34;;;6.30;53.83
40788;BME280;26497;52.494;7.546;2023-02-28T06:31:30;102558.50;;;6.26;54.08
40788;BME280;26497;52.494;7.546;2023-02-28T06:33:57;102547.94;;;6.25;54.24
40788;BME280;26497;52.494;7.546;2023-02-28T06:36:24;102554.25;;;6.28;54.13
40788;BME280;26497;52.494;7.546;2023-02-28T06:38:51;102560.75;;;6.18;54.37
40788;BME280;26497;52.494;7.546;2023-02-28T06:41:22;102551.31;;;6.22;53.99
40788;BME280;26497;52.494;7.546;2023-02-28T06:43:51;102552.97;;;6.20;53.85
40788;BME280;26497;52.494;7.546;2023-02-28T06:46:18;102557.09;;;6.15;53.92
40788;BME280;26497;52.494;7.546;2023-02-28T06:48:45;102559.63;;;6.13;53.97
40788;BME280;26497;52.494;7.546;2023-02-28T06:51:16;102562.53;;;6.19;54.13
40788;BME280;26497;52.494;7.546;2023-02-28T06:53:43;102558.47;;;6.44;53.48
40788;BME280;26497;52.494;7.546;2023-02-28T06:56:13;102562.78;;;6.62;54.75
40788;BME280;26497;52.494;7.546;2023-02-28T06:58:41;102574.59;;;7.11;53.64
40788;BME280;26497;52.494;7.546;2023-02-28T07:01:10;102566.56;;;7.28;54.03
40788;BME280;26497;52.494;7.546;2023-02-28T07:03:38;102571.03;;;7.30;52.59
40788;BME280;26497;52.494;7.546;2023-02-28T07:06:05;102566.72;;;7.11;52.35
40788;BME280;26497;52.494;7.546;2023-02-28T07:08:33;102569.53;;;7.35;52.95
40788;BME280;26497;52.494;7.546;2023-02-28T07:11:02;102567.97;;;8.25;52.54
40788;BME280;26497;52.494;7.546;2023-02-28T07:13:29;102572.44;;;9.21;50.17
40788;BME280;26497;52.494;7.546;2023-02-28T07:15:58;102574.38;;;10.04;47.40
40788;BME280;26497;52.494;7.546;2023-02-28T07:18:28;102563.50;;;10.50;44.80
40788;BME280;26497;52.494;7.546;2023-02-28T07:20:55;102563.19;;;10.13;43.09
40788;BME280;26497;52.494;7.546;2023-02-28T07:23:23;102571.75;;;9.52;43.19
40788;BME280;26497;52.494;7.546;2023-02-28T07:25:51;102575.72;;;8.91;43.59
40788;BME280;26497;52.494;7.546;2023-02-28T07:28:18;102581.75;;;8.41;44.47
40788;BME280;26497;52.494;7.546;2023-02-28T07:30:45;102579.22;;;8.00;45.15
40788;BME280;26497;52.494;7.546;2023-02-28T07:33:12;102578.03;;;7.71;45.32
40788;BME280;26497;52.494;7.546;2023-02-28T07:35:41;102582.56;;;7.53;46.15
40788;BME280;26497;52.494;7.546;2023-02-28T07:38:08;102574.50;;;7.29;46.53
40788;BME280;26497;52.494;7.546;2023-02-28T07:40:36;102576.38;;;7.32;46.63
40788;BME280;26497;52.494;7.546;2023-02-28T07:43:03;102575.84;;;7.19;47.10
40788;BME280;26497;52.494;7.546;2023-02-28T07:45:31;102581.31;;;7.24;47.52
40788;BME280;26497;52.494;7.546;2023-02-28T07:48:00;102576.28;;;7.30;47.45
40788;BME280;26497;52.494;7.546;2023-02-28T07:50:27;102586.16;;;7.15;47.79
40788;BME280;26497;52.494;7.546;2023-02-28T07:52:57;102586.16;;;7.15;48.07
40788;BME280;26497;52.494;7.546;2023-02-28T07:55:25;102576.13;;;7.06;48.42
40788;BME280;26497;52.494;7.546;2023-02-28T07:57:52;102588.34;;;7.05;48.65
40788;BME280;26497;52.494;7.546;2023-02-28T08:00:20;102587.44;;;7.25;48.43
40788;BME280;26497;52.494;7.546;2023-02-28T08:02:47;102585.41;;;7.38;48.43
40788;BME280;26497;52.494;7.546;2023-02-28T08:05:14;102588.00;;;7.58;48.18
40788;BME280;26497;52.494;7.546;2023-02-28T08:07:41;102591.84;;;7.66;47.82
40788;BME280;26497;52.494;7.546;2023-02-28T08:10:11;102586.59;;;7.66;47.89
40788;BME280;26497;52.494;7.546;2023-02-28T08:12:38;102587.78;;;7.73;47.65
40788;BME280;26497;52.494;7.546;2023-02-28T08:15:07;102584.50;;;7.79;47.38
40788;BME280;26497;52.494;7.546;2023-02-28T08:17:34;102588.41;;;7.89;46.79
40788;BME280;26497;52.494;7.546;2023-02-28T08:20:01;102590.38;;;7.94;46.74
40788;BME280;26497;52.494;7.546;2023-02-28T08:22:29;102587.63;;;7.91;46.78
40788;BME280;26497;52.494;7.546;2023-02-28T08:24:56;102598.13;;;8.12;46.22
40788;BME280;26497;52.494;7.546;2023-02-28T08:27:25;102594.91;;;8.20;46.29
40788;BME280;26497;52.494;7.546;2023-02-28T08:29:52;102582.25;;;8.32;46.21
40788;BME280;26497;52.494;7.546;2023-02-28T08:32:19;102589.44;;;8.36;46.30
40788;BME280;26497;52.494;7.546;2023-02-28T08:34:46;102586.56;;;8.51;45.62
40788;BME280;26497;52.494;7.546;2023-02-28T08:37:13;102600.66;;;8.53;45.79
40788;BME280;26497;52.494;7.546;2023-02-28T08:39:40;102594.28;;;8.71;44.69
40788;BME280;26497;52.494;7.546;2023-02-28T08:42:08;102600.75;;;8.79;44.07
40788;BME280;26497;52.494;7.546;2023-02-28T08:44:36;102593.38;;;8.93;43.75
40788;BME280;26497;52.494;7.546;2023-02-28T08:47:04;102589.97;;;8.96;42.43
40788;BME280;26497;52.494;7.546;2023-02-28T08:49:31;102593.66;;;9.01;41.53
40788;BME280;26497;52.494;7.546;2023-02-28T08:51:58;102596.81;;;9.15;39.77
40788;BME280;26497;52.494;7.546;2023-02-28T08:54:30;102589.28;;;9.26;39.63
40788;BME280;26497;52.494;7.546;2023-02-28T08:56:59;102597.03;;;9.47;38.56
40788;BME280;26497;52.494;7.546;2023-02-28T08:59:26;102593.03;;;9.58;38.26
40788;BME280;26497;52.494;7.546;2023-02-28T09:01:54;102591.25;;;10.11;38.18
40788;BME280;26497;52.494;7.546;2023-02-28T09:04:22;102600.84;;;11.25;34.32
40788;BME280;26497;52.494;7.546;2023-02-28T09:06:49;102590.84;;;12.53;31.68
40788;BME280;26497;52.494;7.546;2023-02-28T09:09:16;102577.66;;;13.96;29.45
40788;BME280;26497;52.494;7.546;2023-02-28T09:11:43;102580.38;;;15.37;27.78
40788;BME280;26497;52.494;7.546;2023-02-28T09:14:10;102573.34;;;16.59;24.60
40788;BME280;26497;52.494;7.546;2023-02-28T09:16:37;102576.31;;;17.42;22.45
40788;BME280;26497;52.494;7.546;2023-02-28T09:19:11;102570.97;;;18.16;21.18
40788;BME280;26497;52.494;7.546;2023-02-28T09:21:38;102569.13;;;18.48;20.66
40788;BME280;26497;52.494;7.546;2023-02-28T09:24:06;102576.09;;;18.83;20.85
40788;BME280;26497;52.494;7.546;2023-02-28T09:26:34;102573.16;;;19.34;19.92
40788;BME280;26497;52.494;7.546;2023-02-28T09:29:01;102567.53;;;19.68;19.70
40788;BME280;26497;52.494;7.546;2023-02-28T09:31:29;102570.13;;;19.81;19.18
40788;BME280;26497;52.494;7.546;2023-02-28T09:33:57;102571.97;;;19.72;19.23
40788;BME280;26497;52.494;7.546;2023-02-28T09:36:27;102568.50;;;19.61;18.74
40788;BME280;26497;52.494;7.546;2023-02-28T09:38:55;102563.19;;;19.55;18.81
40788;BME280;26497;52.494;7.546;2023-02-28T09:41:25;102568.41;;;19.70;18.59
40788;BME280;26497;52.494;7.546;2023-02-28T09:43:56;102564.44;;;20.18;18.59
40788;BME280;26497;52.494;7.546;2023-02-28T09:46:33;102557.56;;;20.70;17.31
40788;BME280;26497;52.494;7.546;2023-02-28T09:49:06;102560.22;;;20.72;17.66
40788;BME280;26497;52.494;7.546;2023-02-28T09:51:46;102559.44;;;20.65;17.42
40788;BME280;26497;52.494;7.546;2023-02-28T09:54:18;102560.63;;;20.41;17.86
40788;BME280;26497;52.494;7.546;2023-02-28T09:56:49;102562.56;;;20.26;16.47
40788;BME280;26497;52.494;7.546;2023-02-28T09:59:31;102563.75;;;19.97;16.92
40788;BME280;26497;52.494;7.546;2023-02-28T10:02:21;102564.56;;;20.06;16.91
40788;BME280;26497;52.494;7.546;2023-02-28T10:04:54;102559.75;;;20.37;18.50
40788;BME280;26497;52.494;7.546;2023-02-28T10:07:46;102552.47;;;20.48;17.03
40788;BME280;26497;52.494;7.546;2023-02-28T10:10:22;102562.44;;;20.39;17.44
40788;BME280;26497;52.494;7.546;2023-02-28T10:12:53;102566.34;;;20.07;17.69
40788;BME280;26497;52.494;7.546;2023-02-28T10:15:24;102556.25;;;20.33;17.48
40788;BME280;26497;52.494;7.546;2023-02-28T10:17:57;102554.97;;;20.62;16.52
40788;BME280;26497;52.494;7.546;2023-02-28T10:20:25;102557.84;;;20.48;17.42
40788;BME280;26497;52.494;7.546;2023-02-28T10:23:04;102554.28;;;20.48;17.77
40788;BME280;26497;52.494;7.546;2023-02-28T10:25:37;102558.72;;;20.52;18.07
40788;BME280;26497;52.494;7.546;2023-02-28T10:28:11;102565.88;;;20.48;17.74
40788;BME280;26497;52.494;7.546;2023-02-28T10:30:42;102567.03;;;20.27;18.29
40788;BME280;26497;52.494;7.546;2023-02-28T10:33:20;102562.03;;;19.90;17.43
40788;BME280;26497;52.494;7.546;2023-02-28T10:35:48;102561.25;;;19.72;17.57
40788;BME280;26497;52.494;7.546;2023-02-28T10:38:20;102566.47;;;18.41;18.89
40788;BME280;26497;52.494;7.546;2023-02-28T10:40:48;102564.69;;;18.47;19.11
40788;BME280;26497;52.494;7.546;2023-02-28T10:43:23;102563.72;;;18.57;19.20
40788;BME280;26497;52.494;7.546;2023-02-28T10:46:01;102564.66;;;18.51;18.44
40788;BME280;26497;52.494;7.546;2023-02-28T10:48:36;102552.19;;;18.52;18.33
40788;BME280;26497;52.494;7.546;2023-02-28T10:51:07;102567.34;;;18.42;18.36
40788;BME280;26497;52.494;7.546;2023-02-28T10:53:45;102559.34;;;18.40;18.54
40788;BME280;26497;52.494;7.546;2023-02-28T10:56:18;102567.19;;;18.85;19.03
40788;BME280;26497;52.494;7.546;2023-02-28T10:58:54;102564.31;;;19.23;19.20
40788;BME280;26497;52.494;7.546;2023-02-28T11:01:24;102560.81;;;19.16;18.11
40788;BME280;26497;52.494;7.546;2023-02-28T11:03:52;102552.88;;;18.94;19.14
40788;BME280;26497;52.494;7.546;2023-02-28T11:06:22;102555.53;;;19.05;18.19
40788;BME280;26497;52.494;7.546;2023-02-28T11:08:54;102553.78;;;18.90;17.67
40788;BME280;26497;52.494;7.546;2023-02-28T11:11:25;102551.19;;;18.71;18.30
40788;BME280;26497;52.494;7.546;2023-02-28T11:13:55;102547.38;;;19.22;18.15
40788;BME280;26497;52.494;7.546;2023-02-28T11:16:33;102545.75;;;18.92;18.43
40788;BME280;26497;52.494;7.546;2023-02-28T11:19:02;102549.31;;;18.89;19.66
40788;BME280;26497;52.494;7.546;2023-02-28T11:21:34;102543.97;;;18.94;19.52
40788;BME280;26497;52.494;7.546;2023-02-28T11:24:16;102533.28;;;18.97;17.81
40788;BME280;26497;52.494;7.546;2023-02-28T11:26:49;102535.13;;;18.79;18.63
40788;BME280;26497;52.494;7.546;2023-02-28T11:29:22;102535.19;;;18.67;18.22
40788;BME280;26497;52.494;7.546;2023-02-28T11:32:16;102538.84;;;18.47;19.53
40788;BME280;26497;52.494;7.546;2023-02-28T11:34:44;102534.44;;;18.32;19.15
40788;BME280;26497;52.494;7.546;2023-02-28T11:37:14;102537.97;;;18.42;19.31
40788;BME280;26497;52.494;7.546;2023-02-28T11:39:44;102534.44;;;18.24;18.70
40788;BME280;26497;52.494;7.546;2023-02-28T11:42:33;102526.44;;;18.29;18.62
40788;BME280;26497;52.494;7.546;2023-02-28T11:45:24;102526.34;;;18.55;18.95
40788;BME280;26497;52.494;7.546;2023-02-28T11:48:07;102527.97;;;18.86;18.46
40788;BME280;26497;52.494;7.546;2023-02-28T11:50:52;102524.63;;;18.39;18.83
40788;BME280;26497;52.494;7.546;2023-02-28T11:53:39;102525.53;;;18.25;18.82
40788;BME280;26497;52.494;7.546;2023-02-28T11:56:15;102523.78;;;18.24;19.75
40788;BME280;26497;52.494;7.546;2023-02-28T11:58:55;102519.38;;;18.03;19.23
40788;BME280;26497;52.494;7.546;2023-02-28T12:01:39;102519.34;;;18.08;20.07
40788;BME280;26497;52.494;7.546;2023-02-28T12:04:25;102518.50;;;17.79;20.28
40788;BME280;26497;52.494;7.546;2023-02-28T12:07:02;102512.25;;;18.10;18.91
40788;BME280;26497;52.494;7.546;2023-02-28T12:09:47;102507.78;;;18.17;19.54
40788;BME280;26497;52.494;7.546;2023-02-28T12:12:31;102503.28;;;18.33;18.69
40788;BME280;26497;52.494;7.546;2023-02-28T12:15:28;102504.13;;;18.41;18.70
40788;BME280;26497;52.494;7.546;2023-02-28T12:18:26;102491.69;;;18.41;18.78
40788;BME280;26497;52.494;7.546;2023-02-28T12:21:10;102497.16;;;17.87;20.34
40788;BME280;26497;52.494;7.546;2023-02-28T12:24:03;102501.56;;;18.08;20.17
40788;BME280;26497;52.494;7.546;2023-02-28T12:26:37;102493.41;;;18.47;18.79
40788;BME280;26497;52.494;7.546;2023-02-28T12:29:14;102483.53;;;18.63;17.76
40788;BME280;26497;52.494;7.546;2023-02-28T12:31:49;102481.56;;;18.99;17.64
40788;BME280;26497;52.494;7.546;2023-02-28T12:34:22;102471.19;;;18.42;18.24
40788;BME280;26497;52.494;7.546;2023-02-28T12:36:52;102472.06;;;18.46;19.53
40788;BME280;26497;52.494;7.546;2023-02-28T12:39:26;102466.63;;;18.58;19.31
40788;BME280;26497;52.494;7.546;2023-02-28T12:41:56;102466.47;;;18.86;18.88
40788;BME280;26497;52.494;7.546;2023-02-28T12:44:34;102467.28;;;19.07;18.87
40788;BME280;26497;52.494;7.546;2023-02-28T12:47:04;102458.94;;;19.47;17.11
40788;BME280;26497;52.494;7.546;2023-02-28T12:49:36;102454.28;;;19.68;18.22
40788;BME280;26497;52.494;7.546;2023-02-28T12:52:06;102448.75;;;19.83;17.29
40788;BME280;26497;52.494;7.546;2023-02-28T12:54:42;102447.94;;;19.75;18.45
40788;BME280;26497;52.494;7.546;2023-02-28T12:57:15;102455.03;;;19.79;18.33
40788;BME280;26497;52.494;7.546;2023-02-28T12:59:51;102449.38;;;19.20;18.00
40788;BME280;26497;52.494;7.546;2023-02-28T13:03:16;102438.44;;;19.43;18.31
40788;BME280;26497;52.494;7.546;2023-02-28T13:06:38;102444.25;;;19.87;17.88
40788;BME280;26497;52.494;7.546;2023-02-28T13:09:11;102435.97;;;20.12;18.77
40788;BME280;26497;52.494;7.546;2023-02-28T13:11:43;102436.94;;;20.04;18.55
40788;BME280;26497;52.494;7.546;2023-02-28T13:14:26;102433.28;;;20.76;17.40
40788;BME280;26497;52.494;7.546;2023-02-28T13:17:09;102424.59;;;20.58;17.66
40788;BME280;26497;52.494;7.546;2023-02-28T13:19:39;102422.56;;;20.76;16.72
40788;BME280;26497;52.494;7.546;2023-02-28T13:22:18;102414.81;;;21.15;16.45
40788;BME280;26497;52.494;7.546;2023-02-28T13:24:48;102426.75;;;20.96;16.80
40788;BME280;26497;52.494;7.546;2023-02-28T13:27:36;102423.88;;;21.08;17.50